Time;durP1;ratioP1;P1;durP2;ratioP2;P2;SDS_P1;SDS_P2;PMS_P1;PMS_P2;Temp;Humidity;BMP_temperature;BMP_pressure;BME280_temperature;BME280_humidity;BME280_pressure;Samples;Min_cycle;Max_cycle;Signal;HPM_P1;HPM_P2
2022/04/24 00:01:27;;;;;;;20.75;16.55;;;18.90;61.20;;;;;;5011856;28;20081;-63
2022/04/24 00:03:53;;;;;;;22.35;17.33;;;18.90;61.40;;;;;;5014678;28;20112;-63
2022/04/24 00:06:19;;;;;;;20.30;16.75;;;18.90;61.30;;;;;;5011569;28;20026;-63
2022/04/24 00:08:45;;;;;;;21.48;16.95;;;18.90;61.40;;;;;;5014595;28;20096;-64
2022/04/24 00:11:10;;;;;;;22.20;16.90;;;18.90;61.30;;;;;;5015432;28;20022;-63
2022/04/24 00:13:41;;;;;;;22.05;17.20;;;18.90;61.40;;;;;;5025109;28;20064;-63
2022/04/24 00:16:07;;;;;;;19.80;15.63;;;18.90;61.40;;;;;;5015772;28;20025;-62
2022/04/24 00:18:34;;;;;;;20.48;16.27;;;18.90;61.40;;;;;;5017066;28;20022;-63
2022/04/24 00:21:01;;;;;;;19.23;15.63;;;18.90;61.40;;;;;;5018611;28;20025;-63
2022/04/24 00:23:27;;;;;;;20.08;16.95;;;18.90;61.40;;;;;;5046315;28;20040;-63
2022/04/24 00:25:52;;;;;;;19.23;15.52;;;18.90;61.40;;;;;;5018032;28;20025;-63
2022/04/24 00:28:18;;;;;;;21.02;16.33;;;18.80;61.30;;;;;;5016274;28;20112;-63
2022/04/24 00:30:43;;;;;;;19.20;16.33;;;18.80;61.30;;;;;;5013350;28;20053;-63
2022/04/24 00:33:09;;;;;;;19.65;15.82;;;18.80;61.40;;;;;;5015603;28;20054;-63
2022/04/24 00:35:35;;;;;;;20.05;14.95;;;18.80;61.30;;;;;;5017048;28;20117;-63
2022/04/24 00:38:00;;;;;;;19.42;15.63;;;18.80;61.40;;;;;;5026761;28;20044;-64
2022/04/24 00:40:26;;;;;;;20.17;15.65;;;18.80;61.40;;;;;;5017200;28;20069;-63
2022/04/24 00:42:52;;;;;;;22.23;15.50;;;18.80;61.40;;;;;;5044208;28;20033;-63
2022/04/24 00:45:17;;;;;;;21.40;15.70;;;18.80;61.40;;;;;;5020638;28;20034;-63
2022/04/24 00:47:43;;;;;;;18.83;15.45;;;18.80;61.40;;;;;;5015747;28;20347;-63
2022/04/24 00:50:09;;;;;;;18.45;15.95;;;18.70;61.40;;;;;;5022968;28;20073;-63
2022/04/24 00:52:35;;;;;;;18.50;15.27;;;18.80;61.30;;;;;;5008909;28;20026;-63
2022/04/24 00:55:01;;;;;;;19.83;15.02;;;18.70;61.50;;;;;;5016465;28;20025;-63
2022/04/24 00:57:27;;;;;;;18.65;15.00;;;18.70;61.30;;;;;;5023049;28;20029;-63
2022/04/24 00:59:52;;;;;;;20.58;15.30;;;18.80;61.50;;;;;;5019323;28;20906;-63
2022/04/24 01:02:18;;;;;;;18.75;14.57;;;18.70;61.40;;;;;;5018109;28;20022;-63
2022/04/24 01:04:44;;;;;;;20.63;15.20;;;18.70;61.40;;;;;;5018242;28;20486;-63
2022/04/24 01:07:10;;;;;;;19.60;15.27;;;18.70;61.40;;;;;;5021673;28;20379;-63
2022/04/24 01:09:40;;;;;;;19.90;14.85;;;18.70;61.40;;;;;;5043854;28;20048;-63
2022/04/24 01:12:07;;;;;;;19.08;15.05;;;18.70;61.40;;;;;;5011717;28;20041;-63
2022/04/24 01:14:33;;;;;;;18.58;14.77;;;18.70;61.40;;;;;;5015635;28;20486;-63
2022/04/24 01:16:59;;;;;;;20.88;14.65;;;18.70;61.40;;;;;;5054935;28;20188;-64
2022/04/24 01:19:25;;;;;;;18.50;14.75;;;18.70;61.40;;;;;;5010426;28;20022;-63
2022/04/24 01:21:51;;;;;;;18.50;14.98;;;18.70;61.50;;;;;;5016090;28;20499;-63
2022/04/24 01:24:25;;;;;;;20.88;14.73;;;18.70;61.40;;;;;;5016481;28;20033;-63
2022/04/24 01:26:50;;;;;;;20.42;15.40;;;18.70;61.40;;;;;;5021477;28;20018;-63
2022/04/24 01:29:16;;;;;;;17.52;14.30;;;18.70;61.50;;;;;;5016981;28;20528;-64
2022/04/24 01:31:44;;;;;;;17.33;13.98;;;18.70;61.40;;;;;;5013413;28;20474;-63
2022/04/24 01:34:10;;;;;;;19.17;14.65;;;18.70;61.40;;;;;;5013764;28;20029;-63
2022/04/24 01:36:36;;;;;;;18.23;13.82;;;18.70;61.40;;;;;;5013633;28;20029;-63
2022/04/24 01:39:07;;;;;;;16.33;13.65;;;18.60;61.40;;;;;;5017305;28;20401;-63
2022/04/24 01:41:33;;;;;;;17.20;14.48;;;18.60;61.40;;;;;;5012012;28;20046;-63
2022/04/24 01:43:59;;;;;;;16.88;13.73;;;18.60;61.40;;;;;;5009943;28;20041;-63
2022/04/24 01:46:25;;;;;;;16.20;13.68;;;18.60;61.40;;;;;;5010713;28;20034;-63
2022/04/24 01:48:50;;;;;;;16.92;13.63;;;18.60;61.40;;;;;;5013837;28;20034;-64
2022/04/24 01:51:16;;;;;;;17.63;13.57;;;18.60;61.40;;;;;;5013759;28;20022;-63
2022/04/24 01:53:42;;;;;;;16.73;13.55;;;18.60;61.40;;;;;;5018740;28;20533;-63
2022/04/24 01:56:08;;;;;;;17.45;13.93;;;18.60;61.40;;;;;;5015728;28;20110;-63
2022/04/24 01:58:34;;;;;;;18.52;13.63;;;18.60;61.40;;;;;;5019724;28;20450;-63
2022/04/24 02:01:00;;;;;;;19.15;13.82;;;18.60;61.40;;;;;;5018534;28;20511;-63
2022/04/24 02:03:26;;;;;;;16.80;13.07;;;18.60;61.40;;;;;;5019178;28;20065;-64
2022/04/24 02:05:52;;;;;;;17.10;13.20;;;18.50;61.40;;;;;;5017715;28;20399;-63
2022/04/24 02:08:18;;;;;;;18.83;13.73;;;18.60;61.50;;;;;;5014564;28;20580;-63
2022/04/24 02:10:43;;;;;;;18.63;13.73;;;18.50;61.40;;;;;;5017632;28;20029;-63
2022/04/24 02:13:09;;;;;;;16.80;13.50;;;18.50;61.40;;;;;;5016027;28;20143;-63
2022/04/24 02:15:35;;;;;;;16.02;13.40;;;18.50;61.40;;;;;;5021912;28;20048;-63
2022/04/24 02:18:01;;;;;;;16.90;13.30;;;18.50;61.40;;;;;;5017419;28;20386;-63
2022/04/24 02:20:28;;;;;;;16.35;13.02;;;18.50;61.40;;;;;;5028129;28;20393;-63
2022/04/24 02:22:55;;;;;;;16.17;12.85;;;18.50;61.40;;;;;;5014027;28;20094;-63
2022/04/24 02:25:21;;;;;;;16.80;12.60;;;18.50;61.40;;;;;;5019829;28;20026;-63
2022/04/24 02:27:47;;;;;;;15.43;13.02;;;18.50;61.40;;;;;;5019949;28;20038;-63
2022/04/24 02:30:13;;;;;;;16.15;12.55;;;18.50;61.40;;;;;;5022222;28;20061;-63
2022/04/24 02:32:38;;;;;;;16.13;12.70;;;18.50;61.40;;;;;;5015461;28;20485;-63
2022/04/24 02:35:04;;;;;;;16.90;12.60;;;18.50;61.50;;;;;;5019022;28;20029;-63
2022/04/24 02:37:32;;;;;;;16.40;12.85;;;18.50;61.40;;;;;;5027054;28;20061;-63
2022/04/24 02:39:58;;;;;;;15.68;12.85;;;18.50;61.40;;;;;;5020190;28;20030;-63
2022/04/24 02:42:23;;;;;;;15.43;11.73;;;18.50;61.40;;;;;;5014896;28;20062;-63
2022/04/24 02:44:49;;;;;;;16.00;12.35;;;18.50;61.40;;;;;;5018268;28;20060;-63
2022/04/24 02:47:15;;;;;;;15.25;12.23;;;18.50;61.40;;;;;;5018018;28;20076;-63
2022/04/24 02:49:41;;;;;;;14.52;11.85;;;18.50;61.50;;;;;;5015696;28;20512;-63
2022/04/24 02:52:07;;;;;;;16.30;12.40;;;18.50;61.50;;;;;;5017328;28;20120;-64
2022/04/24 02:54:32;;;;;;;15.80;12.70;;;18.50;61.40;;;;;;5016340;28;20081;-63
2022/04/24 02:56:59;;;;;;;14.57;11.80;;;18.50;61.40;;;;;;5016854;28;20079;-63
2022/04/24 02:59:25;;;;;;;14.73;11.82;;;18.40;61.50;;;;;;5020174;28;20076;-63
2022/04/24 03:01:52;;;;;;;15.23;12.10;;;18.40;61.50;;;;;;5011648;28;20038;-63
2022/04/24 03:04:19;;;;;;;14.65;11.65;;;18.40;61.40;;;;;;5016002;28;20176;-63
2022/04/24 03:06:45;;;;;;;15.30;11.80;;;18.40;61.50;;;;;;5015629;28;20034;-63
2022/04/24 03:09:11;;;;;;;15.88;11.80;;;18.40;61.50;;;;;;5017097;28;20036;-63
2022/04/24 03:11:36;;;;;;;15.43;11.85;;;18.40;61.50;;;;;;5013267;28;20022;-63
2022/04/24 03:14:02;;;;;;;15.07;11.02;;;18.40;61.40;;;;;;5010467;28;20029;-63
2022/04/24 03:16:28;;;;;;;14.55;11.10;;;18.40;61.40;;;;;;5024363;28;20088;-63
2022/04/24 03:18:53;;;;;;;14.13;11.43;;;18.40;61.50;;;;;;5023335;28;20041;-63
2022/04/24 03:21:19;;;;;;;14.75;10.75;;;18.40;61.40;;;;;;5017608;28;20036;-63
2022/04/24 03:23:44;;;;;;;13.93;10.93;;;18.40;61.50;;;;;;5017276;28;20033;-63
2022/04/24 03:26:13;;;;;;;13.70;10.95;;;18.40;61.50;;;;;;5013348;28;20061;-63
2022/04/24 03:28:40;;;;;;;14.20;10.77;;;18.40;61.50;;;;;;5019910;28;20157;-63
2022/04/24 03:31:05;;;;;;;15.20;11.10;;;18.40;61.50;;;;;;5019808;28;20246;-63
2022/04/24 03:33:31;;;;;;;13.98;10.73;;;18.30;61.40;;;;;;5013817;28;20029;-63
2022/04/24 03:35:57;;;;;;;13.73;10.25;;;18.30;61.40;;;;;;5019112;28;20033;-63
2022/04/24 03:38:23;;;;;;;14.25;11.50;;;18.40;61.50;;;;;;5016795;28;20026;-63
2022/04/24 03:40:49;;;;;;;13.32;10.82;;;18.40;61.50;;;;;;5015619;28;20025;-63
2022/04/24 03:43:14;;;;;;;12.77;10.50;;;18.30;62.50;;;;;;5024676;28;20025;-63
2022/04/24 03:45:40;;;;;;;13.52;10.20;;;18.30;61.40;;;;;;5018452;28;20034;-63
2022/04/24 03:48:06;;;;;;;13.45;10.85;;;18.30;61.50;;;;;;5015986;28;20047;-63
2022/04/24 03:50:31;;;;;;;13.88;10.57;;;18.30;61.50;;;;;;5014574;28;20111;-63
2022/04/24 03:52:57;;;;;;;13.38;10.50;;;18.30;61.40;;;;;;5012884;28;20025;-63
2022/04/24 03:55:23;;;;;;;12.82;10.23;;;18.30;61.50;;;;;;5015789;28;20558;-63
2022/04/24 03:57:48;;;;;;;12.93;10.18;;;18.30;61.40;;;;;;5016795;28;20160;-63
2022/04/24 04:00:15;;;;;;;14.60;10.55;;;18.30;61.40;;;;;;5016293;28;20482;-63
2022/04/24 04:02:47;;;;;;;12.95;10.35;;;18.30;61.40;;;;;;5015094;28;20047;-64
2022/04/24 04:05:13;;;;;;;13.85;10.18;;;18.30;61.40;;;;;;5012916;28;20509;-63
2022/04/24 04:07:39;;;;;;;14.85;10.50;;;18.30;61.40;;;;;;5018550;28;20136;-63
2022/04/24 04:10:06;;;;;;;13.18;10.27;;;18.30;61.50;;;;;;5017014;28;20064;-63
2022/04/24 04:12:32;;;;;;;12.85;10.15;;;18.30;61.40;;;;;;5021273;28;20025;-64
2022/04/24 04:15:00;;;;;;;14.20;10.27;;;18.20;61.40;;;;;;5015642;28;20029;-63
2022/04/24 04:17:26;;;;;;;12.50;10.13;;;18.30;61.50;;;;;;5012592;28;20581;-63
2022/04/24 04:19:52;;;;;;;12.90;10.20;;;18.30;61.40;;;;;;5018560;28;20097;-63
2022/04/24 04:22:17;;;;;;;12.98;10.45;;;18.20;61.50;;;;;;5016318;28;20060;-63
2022/04/24 04:24:44;;;;;;;11.48;8.90;;;18.20;61.40;;;;;;5020087;28;20494;-63
2022/04/24 04:27:10;;;;;;;12.65;10.00;;;18.20;61.40;;;;;;5021102;28;20445;-63
2022/04/24 04:29:36;;;;;;;12.00;9.38;;;18.20;61.50;;;;;;5017203;28;20496;-63
2022/04/24 04:32:02;;;;;;;13.60;10.32;;;18.20;61.50;;;;;;5016101;28;20109;-63
2022/04/24 04:34:28;;;;;;;13.40;9.75;;;18.20;61.40;;;;;;5012966;28;21292;-63
2022/04/24 04:36:53;;;;;;;13.82;10.05;;;18.20;62.60;;;;;;5016601;28;20133;-63
2022/04/24 04:39:20;;;;;;;13.55;10.15;;;18.20;61.50;;;;;;5013955;28;20457;-63
2022/04/24 04:41:46;;;;;;;12.80;9.45;;;18.20;61.50;;;;;;5016883;28;20029;-63
2022/04/24 04:44:11;;;;;;;12.30;9.70;;;18.20;61.50;;;;;;5014153;28;20079;-63
2022/04/24 04:46:38;;;;;;;13.18;9.43;;;18.20;61.50;;;;;;5013965;28;20050;-63
2022/04/24 04:49:03;;;;;;;11.43;9.02;;;18.20;61.50;;;;;;5017393;28;20041;-63
2022/04/24 04:51:29;;;;;;;12.93;9.30;;;18.20;61.50;;;;;;5016572;28;20026;-63
2022/04/24 04:53:55;;;;;;;11.73;9.68;;;18.20;61.50;;;;;;5018713;28;20032;-63
2022/04/24 04:56:21;;;;;;;12.15;9.55;;;18.20;61.60;;;;;;5019706;28;20033;-63
2022/04/24 04:58:47;;;;;;;12.57;9.45;;;18.20;61.50;;;;;;5014960;28;20045;-63
2022/04/24 05:01:13;;;;;;;13.35;9.60;;;18.20;61.60;;;;;;5022405;28;20021;-63
2022/04/24 05:03:38;;;;;;;13.50;9.63;;;18.20;61.50;;;;;;5021684;28;20036;-63
2022/04/24 05:06:04;;;;;;;12.00;9.35;;;18.10;61.50;;;;;;5015007;28;20029;-63
2022/04/24 05:08:30;;;;;;;11.75;9.23;;;18.10;61.60;;;;;;5012664;28;20022;-63
2022/04/24 05:10:55;;;;;;;11.68;9.20;;;18.10;61.50;;;;;;5011719;28;20076;-63
2022/04/24 05:13:21;;;;;;;11.93;9.07;;;18.20;61.60;;;;;;5015858;28;20025;-63
2022/04/24 05:15:46;;;;;;;12.85;9.80;;;18.10;61.50;;;;;;5014323;28;20026;-63
2022/04/24 05:18:12;;;;;;;11.50;8.82;;;18.10;61.50;;;;;;5015889;28;20029;-63
2022/04/24 05:20:38;;;;;;;12.23;9.05;;;18.10;61.60;;;;;;5012289;28;20033;-63
2022/04/24 05:23:07;;;;;;;11.40;8.85;;;18.10;61.60;;;;;;5013012;28;20069;-63
2022/04/24 05:25:33;;;;;;;11.98;9.10;;;18.10;61.60;;;;;;5009864;28;20034;-63
2022/04/24 05:28:00;;;;;;;12.73;9.52;;;18.10;61.60;;;;;;5020924;28;20024;-63
2022/04/24 05:30:27;;;;;;;11.88;8.65;;;18.10;61.60;;;;;;5013996;28;20106;-63
2022/04/24 05:32:52;;;;;;;12.93;9.52;;;18.10;61.60;;;;;;5013139;28;20036;-63
2022/04/24 05:35:18;;;;;;;12.13;9.23;;;18.10;61.60;;;;;;5020144;28;20017;-63
2022/04/24 05:37:50;;;;;;;11.65;8.55;;;18.10;61.60;;;;;;5021502;28;20044;-63
2022/04/24 05:40:16;;;;;;;10.52;8.48;;;18.00;61.60;;;;;;5017313;28;20108;-64
2022/04/24 05:42:49;;;;;;;11.18;8.25;;;18.10;61.60;;;;;;5019687;28;20229;-63
2022/04/24 05:45:18;;;;;;;11.63;9.00;;;18.10;61.60;;;;;;5020625;28;20044;-64
2022/04/24 05:47:44;;;;;;;12.05;9.02;;;18.10;61.60;;;;;;5017307;28;20049;-63
2022/04/24 05:50:10;;;;;;;11.15;8.55;;;18.00;61.60;;;;;;5017439;28;20037;-63
2022/04/24 05:52:36;;;;;;;12.20;8.63;;;18.10;61.70;;;;;;5019452;28;20550;-63
2022/04/24 05:55:01;;;;;;;11.32;8.38;;;18.10;61.70;;;;;;5017402;28;20026;-63
2022/04/24 05:57:27;;;;;;;12.23;8.45;;;18.00;61.60;;;;;;5019705;28;20370;-63
2022/04/24 05:59:53;;;;;;;12.18;8.65;;;18.00;61.70;;;;;;5017066;28;20033;-63
2022/04/24 06:02:18;;;;;;;11.57;8.73;;;18.10;61.70;;;;;;5017756;28;20034;-63
2022/04/24 06:04:44;;;;;;;11.57;8.65;;;18.00;61.60;;;;;;5020834;28;20037;-63
2022/04/24 06:07:10;;;;;;;10.75;8.05;;;18.00;61.70;;;;;;5019189;28;20494;-63
2022/04/24 06:09:35;;;;;;;12.20;8.52;;;18.00;61.70;;;;;;5020788;28;20025;-64
2022/04/24 06:12:01;;;;;;;12.23;8.73;;;18.10;61.70;;;;;;5020925;28;20025;-63
2022/04/24 06:14:27;;;;;;;12.10;8.07;;;18.00;61.70;;;;;;5018539;28;20032;-64
2022/04/24 06:16:53;;;;;;;11.13;8.07;;;18.00;61.70;;;;;;5016977;28;20108;-63
2022/04/24 06:19:19;;;;;;;11.02;8.27;;;18.00;61.70;;;;;;5021700;28;20112;-63
2022/04/24 06:21:45;;;;;;;9.88;7.78;;;18.00;61.70;;;;;;5016086;28;20033;-63
2022/04/24 06:24:10;;;;;;;11.98;8.80;;;18.00;61.70;;;;;;5017759;28;20106;-63
2022/04/24 06:26:36;;;;;;;11.68;8.13;;;18.00;61.70;;;;;;5015134;28;20123;-63
2022/04/24 06:29:02;;;;;;;10.93;8.48;;;18.00;61.70;;;;;;5013782;28;20332;-63
2022/04/24 06:31:28;;;;;;;10.43;8.27;;;18.00;61.70;;;;;;5019664;28;20473;-64
2022/04/24 06:33:54;;;;;;;10.88;8.07;;;18.00;61.70;;;;;;5019137;28;20030;-63
2022/04/24 06:36:19;;;;;;;10.73;8.35;;;18.00;61.70;;;;;;5014133;28;20471;-63
2022/04/24 06:38:45;;;;;;;11.30;8.25;;;18.00;61.70;;;;;;5015060;28;20029;-63
2022/04/24 06:41:11;;;;;;;11.85;7.78;;;18.00;61.70;;;;;;5012569;28;20029;-63
2022/04/24 06:43:36;;;;;;;10.82;8.52;;;17.90;61.60;;;;;;5023134;28;20041;-63
2022/04/24 06:46:02;;;;;;;11.38;8.05;;;18.00;61.70;;;;;;5013684;28;20022;-63
2022/04/24 06:48:27;;;;;;;10.68;7.75;;;17.90;61.60;;;;;;5014733;28;20502;-63
2022/04/24 06:50:53;;;;;;;10.68;7.88;;;18.00;61.70;;;;;;5018340;28;20018;-64
2022/04/24 06:53:20;;;;;;;10.32;8.25;;;18.00;61.70;;;;;;5015387;28;20107;-63
2022/04/24 06:55:47;;;;;;;10.88;8.13;;;17.90;61.70;;;;;;5026380;28;20571;-63
2022/04/24 06:58:14;;;;;;;13.23;7.95;;;18.00;61.80;;;;;;5028931;28;20026;-66
2022/04/24 07:00:42;;;;;;;11.80;8.05;;;17.90;62.00;;;;;;5019367;28;20390;-66
2022/04/24 07:03:18;;;;;;;11.40;7.93;;;17.90;61.90;;;;;;5018158;28;20060;-66
2022/04/24 07:05:44;;;;;;;10.43;7.95;;;18.00;62.00;;;;;;5017775;28;20450;-66
2022/04/24 07:08:10;;;;;;;11.18;7.65;;;17.90;61.80;;;;;;5024629;28;20041;-66
2022/04/24 07:10:36;;;;;;;13.35;7.90;;;18.00;61.80;;;;;;5018923;28;20037;-66
2022/04/24 07:13:03;;;;;;;9.75;7.53;;;17.90;61.70;;;;;;5017355;28;20022;-66
2022/04/24 07:15:29;;;;;;;11.23;8.45;;;18.00;61.90;;;;;;5019481;28;20652;-66
2022/04/24 07:17:56;;;;;;;11.13;8.32;;;17.90;61.80;;;;;;5014723;28;20024;-66
2022/04/24 07:20:22;;;;;;;11.38;7.93;;;18.00;61.90;;;;;;5020758;28;20462;-66
2022/04/24 07:22:48;;;;;;;10.05;7.35;;;17.90;61.90;;;;;;5022010;28;20034;-66
2022/04/24 07:25:21;;;;;;;11.85;7.90;;;17.90;61.80;;;;;;5016574;28;20030;-66
2022/04/24 07:27:48;;;;;;;11.07;8.00;;;17.90;62.90;;;;;;5012574;28;20032;-66
2022/04/24 07:30:14;;;;;;;11.57;7.80;;;17.90;61.90;;;;;;5024162;28;20108;-66
2022/04/24 07:32:40;;;;;;;10.82;7.65;;;17.90;61.90;;;;;;5014533;28;20029;-66
2022/04/24 07:35:15;;;;;;;14.25;8.05;;;18.00;61.90;;;;;;5017518;28;20030;-66
2022/04/24 07:37:41;;;;;;;12.10;8.00;;;17.90;61.90;;;;;;5019305;28;20521;-66
2022/04/24 07:40:08;;;;;;;10.93;7.68;;;17.90;61.90;;;;;;5021967;28;20693;-66
2022/04/24 07:42:44;;;;;;;10.68;7.82;;;17.90;61.90;;;;;;5020511;28;20512;-66
2022/04/24 07:45:10;;;;;;;11.13;7.68;;;17.90;62.00;;;;;;5020829;28;20038;-66
2022/04/24 07:47:35;;;;;;;10.85;7.88;;;17.90;61.90;;;;;;5014498;28;20601;-66
2022/04/24 07:50:01;;;;;;;12.02;7.90;;;17.90;62.20;;;;;;5013044;28;20113;-66
2022/04/24 07:52:28;;;;;;;12.05;8.20;;;17.90;62.50;;;;;;5018432;28;20037;-66
2022/04/24 07:54:54;;;;;;;11.48;8.13;;;18.00;62.60;;;;;;5017315;28;20045;-66
2022/04/24 07:57:21;;;;;;;10.95;8.18;;;18.00;62.60;;;;;;5020644;28;20456;-66
2022/04/24 07:59:47;;;;;;;12.43;8.10;;;17.90;62.40;;;;;;5018455;28;20497;-66
2022/04/24 08:02:13;;;;;;;12.98;8.38;;;18.00;62.60;;;;;;5016033;28;20036;-66
2022/04/24 08:04:39;;;;;;;10.23;7.55;;;17.90;62.60;;;;;;5018630;28;20042;-66
2022/04/24 08:07:07;;;;;;;10.93;7.50;;;18.00;62.80;;;;;;5017452;28;20018;-66
2022/04/24 08:09:32;;;;;;;13.98;8.02;;;18.00;62.70;;;;;;5015708;28;20462;-66
2022/04/24 08:11:58;;;;;;;10.98;7.53;;;18.00;62.80;;;;;;5015238;28;20112;-66
2022/04/24 08:14:24;;;;;;;13.10;7.82;;;18.00;62.90;;;;;;5024476;28;20107;-66
2022/04/24 08:16:49;;;;;;;11.73;7.63;;;18.10;63.80;;;;;;5023431;28;20398;-67
2022/04/24 08:19:15;;;;;;;15.73;8.40;;;18.10;62.70;;;;;;5010143;28;20025;-66
2022/04/24 08:21:40;;;;;;;13.23;7.70;;;18.00;63.40;;;;;;5017959;28;20148;-67
2022/04/24 08:24:06;;;;;;;11.40;7.57;;;18.00;63.30;;;;;;5018968;28;20357;-66
2022/04/24 08:26:32;;;;;;;13.27;7.88;;;18.10;63.10;;;;;;5019818;28;21913;-67
2022/04/24 08:28:57;;;;;;;14.05;7.97;;;18.10;63.40;;;;;;5012278;28;20696;-67
2022/04/24 08:31:23;;;;;;;12.07;7.40;;;18.00;63.50;;;;;;5014439;28;20045;-66
2022/04/24 08:33:50;;;;;;;11.40;7.28;;;18.10;63.80;;;;;;5014392;28;20414;-67
2022/04/24 08:36:15;;;;;;;12.75;7.53;;;18.10;63.50;;;;;;5018611;28;20501;-66
2022/04/24 08:38:41;;;;;;;12.07;6.90;;;18.00;63.30;;;;;;5011808;28;20034;-66
2022/04/24 08:41:07;;;;;;;12.13;7.38;;;18.00;63.30;;;;;;5017218;28;20440;-67
2022/04/24 08:43:33;;;;;;;13.05;7.03;;;18.10;63.50;;;;;;5024112;28;20037;-66
2022/04/24 08:45:59;;;;;;;10.85;6.88;;;18.10;63.30;;;;;;5019734;28;20033;-66
2022/04/24 08:48:24;;;;;;;14.93;7.88;;;18.00;63.50;;;;;;5016962;28;20418;-67
2022/04/24 08:50:50;;;;;;;12.10;7.22;;;18.10;63.50;;;;;;5016895;28;20045;-68
2022/04/24 08:53:16;;;;;;;12.05;7.35;;;18.10;64.00;;;;;;5023796;28;20270;-66
2022/04/24 08:55:42;;;;;;;14.77;7.65;;;18.10;64.20;;;;;;5015820;28;20417;-67
2022/04/24 08:58:08;;;;;;;16.42;7.53;;;18.10;63.90;;;;;;5019169;28;20030;-66
2022/04/24 09:00:33;;;;;;;16.88;7.38;;;18.10;64.20;;;;;;5020988;28;20033;-67
2022/04/24 09:02:59;;;;;;;13.18;7.95;;;18.10;63.90;;;;;;5014403;28;20116;-66
2022/04/24 09:05:25;;;;;;;17.90;7.82;;;18.10;64.00;;;;;;5012779;28;20049;-66
2022/04/24 09:07:53;;;;;;;17.30;8.48;;;18.10;64.10;;;;;;5014952;28;20037;-66
2022/04/24 09:10:19;;;;;;;20.15;8.35;;;18.10;63.90;;;;;;5013466;28;20033;-66
2022/04/24 09:12:45;;;;;;;17.15;8.18;;;18.00;63.90;;;;;;5018630;28;20025;-66
2022/04/24 09:15:15;;;;;;;14.52;8.10;;;18.00;63.90;;;;;;5019878;28;20049;-66
2022/04/24 09:17:41;;;;;;;15.00;7.90;;;18.00;63.80;;;;;;5011932;28;20041;-66
2022/04/24 09:20:17;;;;;;;12.63;7.88;;;18.00;63.90;;;;;;5010217;28;20026;-67
2022/04/24 09:22:43;;;;;;;15.88;7.60;;;18.00;64.10;;;;;;5014245;28;20048;-66
2022/04/24 09:25:10;;;;;;;16.60;7.72;;;18.10;63.90;;;;;;5012441;28;20029;-66
2022/04/24 09:27:35;;;;;;;15.75;7.93;;;18.00;64.40;;;;;;5021098;28;20030;-67
2022/04/24 09:30:05;;;;;;;17.75;8.00;;;18.00;64.00;;;;;;5020277;28;20100;-66
2022/04/24 09:32:36;;;;;;;14.90;7.70;;;18.00;64.20;;;;;;5012148;28;20028;-66
2022/04/24 09:35:02;;;;;;;15.38;7.55;;;18.00;64.00;;;;;;5016509;28;20040;-67
2022/04/24 09:37:36;;;;;;;15.63;7.85;;;18.00;64.40;;;;;;5010600;28;20030;-66
2022/04/24 09:40:03;;;;;;;14.93;8.05;;;18.00;64.90;;;;;;5012881;28;20029;-66
2022/04/24 09:42:29;;;;;;;14.27;7.70;;;18.10;64.80;;;;;;5012919;28;20038;-66
2022/04/24 09:44:54;;;;;;;14.50;7.72;;;18.10;64.60;;;;;;5012954;28;20049;-66
2022/04/24 09:47:24;;;;;;;16.83;7.53;;;18.00;64.70;;;;;;5012585;28;20454;-66
2022/04/24 09:49:50;;;;;;;16.67;7.80;;;18.00;64.60;;;;;;5010788;28;20076;-66
2022/04/24 09:52:17;;;;;;;17.25;8.30;;;18.00;64.80;;;;;;5014857;28;20141;-68
2022/04/24 09:54:49;;;;;;;15.88;9.13;;;18.00;64.70;;;;;;5013905;28;20045;-65
2022/04/24 09:57:15;;;;;;;24.48;14.65;;;18.10;65.20;;;;;;5023434;28;20022;-65
2022/04/24 09:59:43;;;;;;;120.28;83.75;;;18.10;65.20;;;;;;5015097;28;20076;-65
2022/04/24 10:02:09;;;;;;;63.45;42.55;;;18.10;65.00;;;;;;5014201;28;20034;-65
2022/04/24 10:04:36;;;;;;;72.93;49.58;;;18.10;66.10;;;;;;5010554;28;20037;-66
2022/04/24 10:07:13;;;;;;;79.40;52.42;;;18.20;65.80;;;;;;5014474;28;20045;-66
2022/04/24 10:09:41;;;;;;;65.32;47.40;;;18.30;66.70;;;;;;5013773;28;20037;-66
2022/04/24 10:12:10;;;;;;;63.83;45.03;;;18.30;66.20;;;;;;5016053;28;20172;-66
2022/04/24 10:15:04;;;;;;;66.13;44.55;;;18.30;66.40;;;;;;5042305;28;20034;-66
2022/04/24 10:17:54;;;;;;;58.70;42.17;;;18.40;66.50;;;;;;5021156;28;20025;-65
2022/04/24 10:20:31;;;;;;;71.35;43.80;;;18.40;67.00;;;;;;5010032;28;20053;-65
2022/04/24 10:22:57;;;;;;;55.17;40.40;;;18.40;67.20;;;;;;5019029;28;20029;-61
2022/04/24 10:25:37;;;;;;;59.75;42.90;;;18.40;66.90;;;;;;5017179;28;20038;-61
2022/04/24 10:28:15;;;;;;;61.22;40.53;;;18.40;67.50;;;;;;5021110;28;20021;-61
2022/04/24 10:30:41;;;;;;;59.70;41.38;;;18.40;67.60;;;;;;5017185;28;20050;-61
2022/04/24 10:33:15;;;;;;;53.28;40.55;;;18.40;67.50;;;;;;5017088;28;20069;-61
2022/04/24 10:35:54;;;;;;;55.53;39.60;;;18.40;67.80;;;;;;5017497;28;20048;-61
2022/04/24 10:38:21;;;;;;;56.22;37.28;;;18.40;69.20;;;;;;5014677;28;20028;-61
2022/04/24 10:41:06;;;;;;;42.42;27.48;;;18.40;67.10;;;;;;5013633;28;20029;-60
2022/04/24 10:43:35;;;;;;;45.90;30.98;;;18.30;66.10;;;;;;5015437;28;20041;-61
2022/04/24 10:46:00;;;;;;;55.92;34.30;;;18.30;66.70;;;;;;5016405;28;20036;-61
2022/04/24 10:48:35;;;;;;;46.55;32.65;;;18.40;66.70;;;;;;5018604;28;20033;-61
2022/04/24 10:51:00;;;;;;;49.25;32.17;;;18.30;66.40;;;;;;5017400;28;20017;-60
2022/04/24 10:53:27;;;;;;;45.20;26.80;;;18.40;66.30;;;;;;5016873;28;20037;-60
2022/04/24 10:56:04;;;;;;;44.42;27.63;;;18.40;66.90;;;;;;5016968;28;20727;-60
2022/04/24 10:58:30;;;;;;;43.20;28.67;;;18.40;66.50;;;;;;5018270;28;20445;-60
2022/04/24 11:01:07;;;;;;;46.85;28.25;;;18.40;66.30;;;;;;5019559;28;20056;-60
2022/04/24 11:03:41;;;;;;;43.55;27.45;;;18.50;66.50;;;;;;5021801;28;20072;-60
2022/04/24 11:06:23;;;;;;;42.13;27.25;;;18.50;66.30;;;;;;5016757;28;20040;-58
2022/04/24 11:08:48;;;;;;;41.97;26.33;;;18.50;66.00;;;;;;5017069;28;20045;-59
2022/04/24 11:11:14;;;;;;;42.97;25.77;;;18.60;66.20;;;;;;5013287;28;20521;-58
2022/04/24 11:13:40;;;;;;;42.95;25.98;;;18.60;66.20;;;;;;5019733;28;20470;-58
2022/04/24 11:16:07;;;;;;;41.75;24.92;;;18.60;66.30;;;;;;5024828;28;20363;-58
2022/04/24 11:18:33;;;;;;;41.20;25.67;;;18.60;66.10;;;;;;5017807;28;20061;-58
2022/04/24 11:21:04;;;;;;;48.03;30.35;;;18.50;66.20;;;;;;5019549;28;20068;-58
2022/04/24 11:23:35;;;;;;;60.83;38.72;;;18.60;66.30;;;;;;5015926;28;20029;-58
2022/04/24 11:26:02;;;;;;;61.70;41.22;;;18.60;66.50;;;;;;5018328;28;20045;-59
2022/04/24 11:28:38;;;;;;;60.90;41.33;;;18.60;66.80;;;;;;5016232;28;20386;-58
2022/04/24 11:31:11;;;;;;;56.05;38.90;;;18.60;66.60;;;;;;5023863;28;20557;-59
2022/04/24 11:33:38;;;;;;;55.92;36.95;;;18.60;66.80;;;;;;5020382;28;20037;-58
2022/04/24 11:36:05;;;;;;;55.13;36.50;;;18.60;66.90;;;;;;5021931;28;20025;-58
2022/04/24 11:38:30;;;;;;;54.75;34.45;;;18.60;65.90;;;;;;5014064;28;20028;-58
2022/04/24 11:40:56;;;;;;;55.80;35.92;;;18.70;66.70;;;;;;5016962;28;20034;-58
2022/04/24 11:43:22;;;;;;;58.75;36.40;;;18.60;66.50;;;;;;5013708;28;20033;-59
2022/04/24 11:51:19;;;;;;;49.47;31.60;;;18.60;66.00;;;;;;5013858;28;20037;-58
2022/04/24 11:53:45;;;;;;;51.25;30.17;;;18.60;66.70;;;;;;5014814;28;20018;-59
2022/04/24 11:56:12;;;;;;;45.10;29.88;;;18.60;66.80;;;;;;5024511;28;20091;-58
2022/04/24 11:58:39;;;;;;;44.72;29.50;;;18.70;66.60;;;;;;5025059;28;20026;-58
2022/04/24 12:01:07;;;;;;;46.33;28.42;;;18.60;66.40;;;;;;5019483;28;20026;-58
2022/04/24 12:03:33;;;;;;;44.97;29.13;;;18.70;66.70;;;;;;5021798;28;20056;-59
2022/04/24 12:06:00;;;;;;;43.03;28.83;;;18.70;66.40;;;;;;5017167;28;20413;-58
2022/04/24 12:08:38;;;;;;;43.85;28.45;;;18.70;66.60;;;;;;5025298;28;20161;-58
2022/04/24 12:11:05;;;;;;;48.60;27.55;;;18.70;66.10;;;;;;5015526;28;20148;-58
2022/04/24 12:13:33;;;;;;;44.28;27.30;;;18.70;66.30;;;;;;5021872;28;20033;-58
2022/04/24 12:15:59;;;;;;;44.72;27.25;;;18.70;65.90;;;;;;5022008;28;20026;-58
2022/04/24 12:18:25;;;;;;;41.28;27.23;;;18.70;65.90;;;;;;5020952;28;20036;-59
2022/04/24 12:20:51;;;;;;;42.30;27.25;;;18.70;65.80;;;;;;5017006;28;20104;-58
2022/04/24 12:23:17;;;;;;;44.28;27.00;;;18.70;66.10;;;;;;5018805;28;20076;-58
2022/04/24 12:25:53;;;;;;;41.78;26.02;;;18.70;65.80;;;;;;5018614;28;20033;-59
2022/04/24 12:28:36;;;;;;;37.40;26.92;;;18.70;66.50;;;;;;5024036;28;20092;-59
2022/04/24 12:31:04;;;;;;;41.55;26.27;;;18.70;66.10;;;;;;5025307;28;20099;-58
2022/04/24 12:33:44;;;;;;;40.17;26.60;;;18.70;66.20;;;;;;5023154;28;20064;-59
2022/04/24 12:36:15;;;;;;;38.13;25.48;;;18.80;66.20;;;;;;5017600;28;20128;-59